Time;durP1;ratioP1;P1;durP2;ratioP2;P2;SDS_P1;SDS_P2;PMS_P1;PMS_P2;Temp;Humidity;BMP_temperature;BMP_pressure;BME280_temperature;BME280_humidity;BME280_pressure;Samples;Min_cycle;Max_cycle;Signal;HPM_P1;HPM_P2
2022/05/15 00:02:01;;;;;;;8.20;4.00;;;14.10;99.90;;;;;;5064552;28;20030;-77
2022/05/15 00:04:27;;;;;;;7.07;4.63;;;14.00;99.90;;;;;;5055408;28;20395;-76
2022/05/15 00:06:52;;;;;;;5.72;3.75;;;13.90;99.90;;;;;;5066115;28;20024;-76
2022/05/15 00:09:18;;;;;;;12.23;4.60;;;14.00;99.90;;;;;;5064608;28;20025;-75
2022/05/15 00:11:43;;;;;;;10.20;3.80;;;14.00;99.90;;;;;;5063442;28;20020;-76
2022/05/15 00:14:09;;;;;;;5.05;3.53;;;14.00;99.90;;;;;;5065232;28;20067;-76
2022/05/15 00:16:34;;;;;;;7.43;3.80;;;13.90;99.90;;;;;;5065918;28;20074;-76
2022/05/15 00:19:00;;;;;;;6.40;3.50;;;13.90;99.90;;;;;;5070242;28;20024;-76
2022/05/15 00:21:26;;;;;;;5.90;3.70;;;13.90;99.90;;;;;;5062709;28;20028;-77
2022/05/15 00:23:52;;;;;;;8.30;4.00;;;14.00;99.90;;;;;;5056702;28;20029;-77
2022/05/15 00:26:18;;;;;;;7.72;4.15;;;13.90;99.90;;;;;;5074794;28;20062;-76
2022/05/15 00:28:43;;;;;;;7.53;4.30;;;13.80;99.90;;;;;;5075589;28;20036;-76
2022/05/15 00:31:12;;;;;;;8.10;4.28;;;13.20;99.90;;;;;;5071547;28;20056;-75
2022/05/15 00:33:38;;;;;;;12.60;3.85;;;13.20;99.90;;;;;;5067405;28;20112;-76
2022/05/15 00:36:04;;;;;;;7.05;4.07;;;13.50;99.90;;;;;;5065039;28;20048;-75
2022/05/15 00:38:29;;;;;;;9.68;3.90;;;13.70;99.90;;;;;;5054150;28;20556;-75
2022/05/15 00:40:56;;;;;;;8.43;4.10;;;13.70;99.90;;;;;;5051560;28;20033;-73
2022/05/15 00:43:44;;;;;;;9.07;4.18;;;13.60;99.90;;;;;;5066870;28;20036;-76
2022/05/15 00:46:29;;;;;;;8.50;4.13;;;13.70;99.90;;;;;;5053250;28;20441;-76
2022/05/15 00:48:56;;;;;;;7.75;3.90;;;13.70;99.90;;;;;;5053363;28;20044;-75
2022/05/15 00:51:27;;;;;;;8.88;4.20;;;13.60;99.90;;;;;;5052781;28;20090;-75
2022/05/15 00:53:58;;;;;;;11.50;4.80;;;13.90;99.90;;;;;;5065076;28;20092;-76
2022/05/15 00:56:26;;;;;;;8.07;4.32;;;13.90;99.90;;;;;;5086607;28;20048;-75
2022/05/15 00:59:02;;;;;;;7.68;4.57;;;13.70;99.90;;;;;;5060223;28;20391;-75
2022/05/15 01:01:27;;;;;;;8.77;4.57;;;13.10;99.90;;;;;;5060306;28;20548;-75
2022/05/15 01:03:53;;;;;;;8.75;4.35;;;13.20;99.90;;;;;;5059957;28;20049;-76
2022/05/15 01:06:19;;;;;;;12.27;4.53;;;13.40;99.90;;;;;;5064381;28;20522;-76
2022/05/15 01:08:45;;;;;;;10.35;4.63;;;13.30;99.90;;;;;;5065307;28;20070;-75
2022/05/15 01:11:17;;;;;;;8.85;4.38;;;13.40;99.90;;;;;;5051220;28;20021;-74
2022/05/15 01:13:45;;;;;;;11.40;4.30;;;13.20;99.90;;;;;;5054574;28;20371;-75
2022/05/15 01:16:12;;;;;;;9.35;4.90;;;13.40;99.90;;;;;;5065262;28;20550;-77
2022/05/15 01:18:39;;;;;;;9.95;4.40;;;13.60;99.90;;;;;;5065139;28;20028;-75
2022/05/15 01:21:23;;;;;;;8.77;4.70;;;13.50;99.90;;;;;;5060467;28;20040;-75
2022/05/15 01:23:50;;;;;;;7.45;4.20;;;13.60;99.90;;;;;;5059238;28;20020;-76
2022/05/15 01:26:16;;;;;;;8.95;4.15;;;13.60;99.90;;;;;;5061415;28;20058;-75
2022/05/15 01:28:45;;;;;;;10.00;4.30;;;13.50;99.90;;;;;;5065326;28;20037;-76
2022/05/15 01:31:12;;;;;;;7.88;4.45;;;12.80;99.90;;;;;;5063385;28;20035;-76
2022/05/15 01:33:38;;;;;;;7.97;4.30;;;12.40;99.90;;;;;;5059835;28;20020;-76
2022/05/15 01:36:05;;;;;;;7.57;4.65;;;12.60;99.90;;;;;;5061730;28;20047;-77
2022/05/15 01:38:30;;;;;;;12.15;4.60;;;12.70;99.90;;;;;;5053390;28;20113;-75
2022/05/15 01:40:56;;;;;;;9.07;4.53;;;12.90;99.90;;;;;;5064130;28;20483;-76
2022/05/15 01:43:21;;;;;;;6.43;4.45;;;12.90;99.90;;;;;;5059889;28;20060;-76
2022/05/15 01:45:47;;;;;;;7.57;4.65;;;12.00;99.90;;;;;;5060561;28;20028;-76
2022/05/15 01:48:13;;;;;;;11.10;5.15;;;11.30;99.90;;;;;;5065238;28;20031;-76
2022/05/15 01:50:38;;;;;;;8.23;4.40;;;11.60;99.90;;;;;;5063838;28;20029;-76
2022/05/15 01:53:04;;;;;;;8.57;4.53;;;11.70;99.90;;;;;;5059481;28;20024;-76
2022/05/15 01:55:29;;;;;;;13.18;4.95;;;11.80;99.90;;;;;;5066230;28;20028;-75
2022/05/15 01:57:55;;;;;;;9.48;5.10;;;11.90;99.90;;;;;;5086243;28;20028;-74
2022/05/15 02:00:23;;;;;;;6.80;4.82;;;11.90;99.90;;;;;;5081408;28;20542;-75
2022/05/15 02:02:49;;;;;;;6.68;5.07;;;12.00;99.90;;;;;;5077598;28;20017;-74
2022/05/15 02:05:16;;;;;;;8.52;5.30;;;12.10;99.90;;;;;;5059347;28;20033;-75
2022/05/15 02:07:42;;;;;;;9.20;5.80;;;11.90;99.90;;;;;;5063846;28;20028;-75
2022/05/15 02:10:09;;;;;;;7.75;5.40;;;11.80;99.90;;;;;;5087103;28;20069;-76
2022/05/15 02:12:35;;;;;;;6.43;5.18;;;11.50;99.90;;;;;;5066348;28;20566;-76
2022/05/15 02:15:02;;;;;;;8.05;5.15;;;11.20;99.90;;;;;;5051920;28;20090;-76
2022/05/15 02:17:28;;;;;;;8.60;5.55;;;11.10;99.90;;;;;;5064890;28;20044;-76
2022/05/15 02:19:53;;;;;;;8.90;5.45;;;11.00;99.90;;;;;;5083368;28;20039;-76
2022/05/15 02:22:19;;;;;;;8.65;5.72;;;10.90;99.90;;;;;;5065240;28;20036;-77
2022/05/15 02:24:45;;;;;;;5.90;5.30;;;10.70;99.90;;;;;;5063233;28;20024;-75
2022/05/15 02:27:11;;;;;;;12.35;5.68;;;10.50;99.90;;;;;;5069318;28;20074;-74
2022/05/15 02:29:37;;;;;;;7.70;5.70;;;10.60;99.90;;;;;;5071556;28;20028;-75
2022/05/15 02:32:03;;;;;;;9.05;5.65;;;10.60;99.90;;;;;;5057779;28;20036;-75
2022/05/15 02:34:29;;;;;;;9.70;5.85;;;10.90;99.90;;;;;;5059447;28;20032;-76
2022/05/15 02:36:54;;;;;;;9.52;5.72;;;11.00;99.90;;;;;;5065286;28;20421;-77
2022/05/15 02:39:20;;;;;;;9.63;5.22;;;11.10;99.90;;;;;;5063189;28;20037;-75
2022/05/15 02:41:46;;;;;;;9.50;6.07;;;11.20;99.90;;;;;;5052295;28;20372;-76
2022/05/15 02:44:11;;;;;;;11.05;6.28;;;11.00;99.90;;;;;;5050586;28;20021;-76
2022/05/15 02:46:37;;;;;;;7.93;5.85;;;11.00;99.90;;;;;;5052273;28;20033;-77
2022/05/15 02:51:47;;;;;;;13.27;6.38;;;11.20;99.90;;;;;;5076390;28;20078;-76
2022/05/15 02:54:13;;;;;;;9.98;6.07;;;10.80;99.90;;;;;;5075964;28;20482;-75
2022/05/15 02:56:38;;;;;;;9.43;6.10;;;10.90;99.90;;;;;;5074228;28;20021;-75
2022/05/15 02:59:05;;;;;;;9.82;6.00;;;11.10;99.90;;;;;;5056532;28;20106;-76
2022/05/15 03:01:30;;;;;;;8.88;5.57;;;11.10;99.90;;;;;;5072920;28;20126;-76
2022/05/15 03:03:56;;;;;;;9.10;5.80;;;11.10;99.90;;;;;;5058058;28;20443;-76
2022/05/15 03:06:21;;;;;;;10.13;5.97;;;11.10;99.90;;;;;;5062078;28;20033;-76
2022/05/15 03:08:49;;;;;;;9.35;6.20;;;11.00;99.90;;;;;;5065967;28;20433;-75
2022/05/15 03:11:15;;;;;;;12.05;5.90;;;11.00;99.90;;;;;;5061451;28;20385;-76
2022/05/15 03:13:44;;;;;;;9.48;5.95;;;11.00;99.90;;;;;;5075398;28;20429;-74
2022/05/15 03:16:11;;;;;;;7.28;5.30;;;10.90;99.90;;;;;;5059873;28;20029;-76
2022/05/15 03:18:42;;;;;;;8.38;5.82;;;11.00;99.90;;;;;;5057649;28;20079;-76
2022/05/15 03:21:10;;;;;;;7.47;5.95;;;10.90;99.90;;;;;;5061673;28;20021;-76
2022/05/15 03:23:36;;;;;;;9.80;5.72;;;10.90;99.90;;;;;;5070292;28;20028;-74
2022/05/15 03:26:01;;;;;;;10.13;6.13;;;10.90;99.90;;;;;;5061756;28;20079;-75
2022/05/15 03:28:27;;;;;;;12.15;5.85;;;10.90;99.90;;;;;;5050962;28;20112;-76
2022/05/15 03:30:52;;;;;;;11.65;6.28;;;10.90;99.90;;;;;;5050000;28;20060;-75
2022/05/15 03:33:18;;;;;;;10.38;5.70;;;10.80;99.90;;;;;;5065513;28;20064;-75
2022/05/15 03:35:43;;;;;;;11.45;5.75;;;10.80;99.90;;;;;;5061058;28;20495;-74
2022/05/15 03:38:09;;;;;;;9.75;5.68;;;10.90;99.90;;;;;;5073389;28;20033;-75
2022/05/15 03:40:35;;;;;;;8.90;6.43;;;10.70;99.90;;;;;;5079434;28;20603;-76
2022/05/15 03:43:01;;;;;;;9.70;6.55;;;10.70;99.90;;;;;;5064260;28;20031;-76
2022/05/15 03:45:26;;;;;;;10.10;5.80;;;10.70;99.90;;;;;;5077938;28;20024;-76
2022/05/15 03:47:54;;;;;;;9.55;5.22;;;10.80;99.90;;;;;;5072891;28;20052;-76
2022/05/15 03:50:25;;;;;;;12.23;6.35;;;10.90;99.90;;;;;;5073436;28;20415;-76
2022/05/15 03:52:51;;;;;;;10.18;5.90;;;10.80;99.90;;;;;;5074152;28;20104;-75
2022/05/15 03:55:16;;;;;;;7.65;5.32;;;10.70;99.90;;;;;;5063989;28;20075;-74
2022/05/15 03:57:42;;;;;;;13.32;6.35;;;10.80;99.90;;;;;;5084485;28;20035;-74
2022/05/15 04:00:11;;;;;;;11.52;6.15;;;10.80;99.90;;;;;;5073076;28;20057;-73
2022/05/15 04:02:40;;;;;;;7.80;5.30;;;10.70;99.90;;;;;;5065265;28;20028;-74
2022/05/15 04:05:07;;;;;;;11.82;5.80;;;10.90;99.90;;;;;;5081933;28;20032;-75
2022/05/15 04:07:41;;;;;;;11.05;6.40;;;10.90;99.90;;;;;;5068449;28;20033;-75
2022/05/15 04:10:07;;;;;;;8.15;5.40;;;10.80;99.90;;;;;;5066200;28;20044;-74
2022/05/15 04:12:32;;;;;;;10.18;5.88;;;10.80;99.90;;;;;;5054799;28;20063;-74
2022/05/15 04:14:58;;;;;;;10.13;5.88;;;11.20;99.90;;;;;;5053944;28;20053;-74
2022/05/15 04:17:23;;;;;;;11.02;6.20;;;11.00;99.90;;;;;;5067434;28;20036;-74
2022/05/15 04:19:49;;;;;;;14.88;6.10;;;11.10;99.90;;;;;;5053810;28;20114;-74
2022/05/15 04:22:15;;;;;;;11.88;6.30;;;11.20;99.90;;;;;;5071635;28;20021;-75
2022/05/15 04:24:40;;;;;;;13.40;6.18;;;11.40;99.90;;;;;;5069259;28;20570;-75
2022/05/15 04:27:06;;;;;;;13.95;6.63;;;11.50;99.90;;;;;;5059525;28;20025;-75
2022/05/15 04:29:31;;;;;;;12.15;6.28;;;11.60;99.90;;;;;;5076695;28;20069;-75
2022/05/15 04:31:57;;;;;;;9.98;6.20;;;11.50;99.90;;;;;;5088314;28;20099;-74
2022/05/15 04:34:24;;;;;;;11.73;6.38;;;11.70;99.90;;;;;;5073736;28;20170;-74
2022/05/15 04:36:50;;;;;;;10.68;6.68;;;11.70;99.90;;;;;;5073754;28;20167;-75
2022/05/15 04:39:16;;;;;;;10.38;6.72;;;11.30;99.90;;;;;;5062676;28;20542;-74
2022/05/15 04:41:41;;;;;;;10.68;6.68;;;11.40;99.90;;;;;;5066520;28;20155;-74
2022/05/15 04:44:08;;;;;;;10.52;6.28;;;11.50;99.90;;;;;;5078870;28;20115;-74
2022/05/15 04:46:34;;;;;;;12.55;6.25;;;11.80;99.90;;;;;;5079077;28;20017;-74
2022/05/15 04:48:59;;;;;;;10.30;6.57;;;11.90;99.90;;;;;;5073478;28;20035;-74
2022/05/15 04:51:25;;;;;;;9.25;6.38;;;12.10;99.90;;;;;;5055311;28;20025;-74
2022/05/15 04:53:52;;;;;;;14.93;6.57;;;12.10;99.90;;;;;;5053487;28;20544;-74
2022/05/15 04:56:18;;;;;;;12.32;6.68;;;12.30;99.90;;;;;;5067147;28;20025;-74
2022/05/15 04:58:44;;;;;;;10.77;5.90;;;12.40;99.90;;;;;;5060586;28;20036;-73
2022/05/15 05:01:09;;;;;;;11.07;6.53;;;12.50;99.90;;;;;;5057105;28;20036;-76
2022/05/15 05:03:35;;;;;;;13.63;6.00;;;12.60;99.90;;;;;;5077881;28;20073;-76
2022/05/15 05:06:00;;;;;;;13.95;6.18;;;12.60;99.90;;;;;;5059579;28;20032;-76
2022/05/15 05:08:26;;;;;;;13.20;5.85;;;12.70;99.90;;;;;;5059933;28;20394;-76
2022/05/15 05:10:51;;;;;;;13.63;5.80;;;13.00;99.90;;;;;;5065963;28;20438;-76
2022/05/15 05:13:17;;;;;;;11.68;6.05;;;12.90;99.90;;;;;;5064265;28;20074;-76
2022/05/15 05:15:42;;;;;;;13.55;6.13;;;13.00;99.90;;;;;;5073749;28;20077;-74
2022/05/15 05:18:08;;;;;;;12.15;5.72;;;13.10;99.90;;;;;;5080264;28;20039;-74
2022/05/15 05:20:34;;;;;;;12.00;5.78;;;13.20;99.90;;;;;;5058578;28;20035;-73
2022/05/15 05:22:59;;;;;;;13.10;5.78;;;13.30;99.90;;;;;;5079540;28;20118;-75
2022/05/15 05:25:25;;;;;;;12.27;5.65;;;13.30;99.90;;;;;;5080361;28;20480;-74
2022/05/15 05:27:50;;;;;;;11.82;5.80;;;13.50;99.90;;;;;;5076076;28;20453;-75
2022/05/15 05:30:20;;;;;;;11.05;5.78;;;13.50;99.90;;;;;;5067248;28;20100;-75
2022/05/15 05:32:46;;;;;;;10.45;6.00;;;13.60;99.90;;;;;;5063122;28;20474;-76
2022/05/15 05:35:14;;;;;;;11.32;5.95;;;13.70;99.90;;;;;;5059450;28;20035;-75
2022/05/15 05:37:39;;;;;;;13.30;5.68;;;13.80;99.90;;;;;;5072566;28;20032;-74
2022/05/15 05:40:06;;;;;;;9.02;5.70;;;14.00;99.90;;;;;;5053269;28;20104;-74
2022/05/15 05:42:31;;;;;;;10.65;5.53;;;14.10;99.90;;;;;;5064216;28;20103;-75
2022/05/15 05:44:57;;;;;;;8.73;5.10;;;14.10;99.90;;;;;;5053151;28;20112;-75
2022/05/15 05:47:27;;;;;;;9.55;5.43;;;14.10;99.90;;;;;;5064244;28;20063;-75
2022/05/15 05:49:53;;;;;;;14.65;5.85;;;14.20;99.90;;;;;;5071278;28;20020;-75
2022/05/15 05:52:19;;;;;;;9.98;5.57;;;14.40;99.90;;;;;;5059091;28;20028;-76
2022/05/15 05:54:45;;;;;;;12.60;5.57;;;14.40;99.90;;;;;;5069936;28;20506;-73
2022/05/15 05:57:10;;;;;;;13.98;6.10;;;14.50;99.90;;;;;;5059512;28;20029;-71
2022/05/15 05:59:36;;;;;;;10.50;5.50;;;14.70;99.90;;;;;;5053937;28;20074;-76
2022/05/15 06:02:01;;;;;;;12.93;6.13;;;14.80;99.90;;;;;;5057317;28;20017;-76
2022/05/15 06:04:39;;;;;;;12.15;5.80;;;14.80;99.90;;;;;;5078416;28;20036;-76
2022/05/15 06:07:05;;;;;;;10.70;6.00;;;14.80;99.90;;;;;;5058413;28;20451;-75
2022/05/15 06:09:30;;;;;;;10.70;5.32;;;14.80;99.90;;;;;;5071896;28;20027;-76
2022/05/15 06:11:56;;;;;;;13.98;6.28;;;15.00;99.90;;;;;;5073396;28;20028;-76
2022/05/15 06:14:23;;;;;;;8.65;5.00;;;15.00;99.90;;;;;;5059223;28;20055;-76
2022/05/15 06:16:48;;;;;;;10.38;4.93;;;15.10;99.90;;;;;;5057087;28;20021;-76
2022/05/15 06:19:14;;;;;;;12.45;4.70;;;15.30;99.90;;;;;;5064268;28;20029;-76
2022/05/15 06:21:39;;;;;;;11.98;4.95;;;15.60;99.90;;;;;;5064804;28;20454;-76
2022/05/15 06:24:05;;;;;;;11.57;4.68;;;15.70;99.90;;;;;;5057602;28;20024;-76
2022/05/15 06:26:31;;;;;;;9.35;4.82;;;15.90;99.90;;;;;;5057101;28;20029;-76
2022/05/15 06:28:56;;;;;;;11.90;4.82;;;16.10;99.90;;;;;;5063350;28;20086;-76
2022/05/15 06:31:22;;;;;;;8.88;4.95;;;16.10;99.90;;;;;;5063381;28;20020;-76
2022/05/15 06:33:47;;;;;;;10.77;4.75;;;16.10;99.90;;;;;;5058364;28;20436;-76
2022/05/15 06:36:13;;;;;;;8.57;4.75;;;16.30;99.90;;;;;;5056954;28;20025;-76
2022/05/15 06:38:41;;;;;;;9.32;4.43;;;16.30;99.90;;;;;;5064966;28;20535;-75
2022/05/15 06:41:10;;;;;;;8.73;4.68;;;16.40;99.90;;;;;;5064263;28;20025;-76
2022/05/15 06:43:36;;;;;;;11.77;4.47;;;16.60;99.90;;;;;;5058373;28;20079;-76
2022/05/15 06:46:02;;;;;;;9.55;4.50;;;16.60;99.90;;;;;;5056835;28;20436;-76
2022/05/15 06:48:28;;;;;;;11.82;4.82;;;16.70;99.90;;;;;;5066528;28;20029;-76
2022/05/15 06:50:53;;;;;;;8.73;4.38;;;16.70;99.90;;;;;;5063404;28;20505;-76
2022/05/15 06:53:19;;;;;;;10.93;4.50;;;16.80;99.90;;;;;;5064626;28;20106;-76
2022/05/15 06:58:29;;;;;;;10.45;4.75;;;17.00;99.90;;;;;;5057529;28;20031;-76
2022/05/15 07:00:55;;;;;;;8.82;4.40;;;17.10;99.90;;;;;;5053065;28;20032;-76
2022/05/15 07:03:21;;;;;;;13.25;4.70;;;17.10;99.90;;;;;;5061432;28;20082;-76
2022/05/15 07:05:47;;;;;;;9.55;4.53;;;17.10;99.90;;;;;;5056429;28;20041;-77
2022/05/15 07:08:14;;;;;;;9.70;4.55;;;17.20;99.90;;;;;;5061458;28;20032;-72
2022/05/15 07:10:40;;;;;;;9.45;4.25;;;17.30;99.90;;;;;;5053921;28;20016;-72
2022/05/15 07:13:06;;;;;;;9.95;4.78;;;17.50;99.90;;;;;;5061128;28;20036;-73
2022/05/15 07:15:32;;;;;;;6.70;4.20;;;17.60;99.90;;;;;;5053800;28;20017;-76
2022/05/15 07:17:57;;;;;;;7.90;3.95;;;17.60;99.90;;;;;;5068612;28;20025;-79
2022/05/15 07:20:23;;;;;;;7.20;4.03;;;17.70;99.90;;;;;;5070248;28;20067;-76
2022/05/15 07:22:48;;;;;;;8.68;4.30;;;17.80;99.90;;;;;;5069874;28;20039;-76
2022/05/15 07:25:14;;;;;;;11.15;3.75;;;17.90;99.90;;;;;;5070151;28;20028;-75
2022/05/15 07:27:39;;;;;;;5.95;3.70;;;17.90;99.90;;;;;;5064834;28;20029;-75
2022/05/15 07:30:06;;;;;;;9.68;3.83;;;18.00;99.90;;;;;;5053407;28;20498;-75
2022/05/15 07:32:31;;;;;;;9.55;4.13;;;18.20;99.90;;;;;;5054333;28;20048;-75
2022/05/15 07:34:57;;;;;;;9.00;3.80;;;18.20;99.90;;;;;;5054487;28;20028;-76
2022/05/15 07:37:22;;;;;;;10.75;3.67;;;18.20;99.90;;;;;;5053442;28;20031;-75
2022/05/15 07:39:48;;;;;;;8.95;3.72;;;18.40;99.90;;;;;;5053174;28;20021;-76
2022/05/15 07:42:14;;;;;;;10.10;4.00;;;18.40;99.90;;;;;;5052660;28;20028;-76
2022/05/15 07:44:40;;;;;;;8.05;3.80;;;18.50;99.90;;;;;;5057906;28;20021;-76
2022/05/15 07:47:06;;;;;;;10.23;4.03;;;18.40;99.90;;;;;;5073056;28;20024;-76
2022/05/15 07:49:32;;;;;;;8.48;3.72;;;18.40;99.90;;;;;;5073017;28;20040;-76
2022/05/15 07:51:58;;;;;;;7.07;3.40;;;18.50;99.90;;;;;;5073781;28;20026;-76
2022/05/15 07:54:24;;;;;;;9.68;4.13;;;18.70;99.90;;;;;;5070301;28;20040;-76
2022/05/15 07:56:49;;;;;;;9.57;4.10;;;18.90;99.90;;;;;;5054156;28;20026;-76
2022/05/15 07:59:15;;;;;;;10.38;3.95;;;18.80;99.90;;;;;;5057083;28;20020;-75
2022/05/15 08:01:41;;;;;;;6.35;3.67;;;18.70;99.90;;;;;;5064253;28;20033;-76
2022/05/15 08:04:07;;;;;;;5.05;3.33;;;18.80;99.90;;;;;;5069095;28;20085;-76
2022/05/15 08:09:17;;;;;;;6.88;3.83;;;19.30;99.90;;;;;;5073907;28;20040;-76
2022/05/15 08:11:43;;;;;;;7.22;3.95;;;19.10;99.90;;;;;;5072192;28;20398;-75
2022/05/15 08:14:10;;;;;;;8.05;3.40;;;19.10;99.90;;;;;;5072573;28;20107;-76
2022/05/15 08:16:37;;;;;;;7.90;3.47;;;19.40;99.90;;;;;;5073882;28;20112;-76
2022/05/15 08:24:33;;;;;;;7.43;3.70;;;19.70;99.90;;;;;;5074034;28;20043;-76
2022/05/15 08:26:59;;;;;;;7.82;3.60;;;19.70;99.90;;;;;;5073660;28;20055;-76
2022/05/15 08:29:24;;;;;;;8.77;3.90;;;19.70;99.90;;;;;;5072355;28;20024;-76
2022/05/15 08:31:50;;;;;;;7.15;3.28;;;19.90;99.90;;;;;;5055806;28;20531;-76
2022/05/15 08:34:16;;;;;;;7.78;3.60;;;20.10;99.90;;;;;;5053501;28;20399;-76
2022/05/15 08:36:44;;;;;;;7.35;3.70;;;19.90;99.90;;;;;;5055793;28;20074;-76
2022/05/15 08:39:13;;;;;;;9.52;3.92;;;20.10;99.90;;;;;;5062857;28;20103;-75
2022/05/15 08:41:51;;;;;;;9.75;4.03;;;20.10;99.90;;;;;;5064966;28;20036;-76
2022/05/15 08:44:18;;;;;;;7.32;3.80;;;20.10;99.90;;;;;;5053395;28;20086;-76
2022/05/15 08:46:52;;;;;;;10.57;3.33;;;20.20;99.90;;;;;;5053307;28;20025;-75
2022/05/15 08:49:29;;;;;;;7.25;3.50;;;20.10;99.90;;;;;;5053262;28;20036;-75
2022/05/15 08:52:30;;;;;;;6.95;3.80;;;20.10;99.90;;;;;;5060479;28;20020;-76
2022/05/15 08:55:06;;;;;;;9.27;4.07;;;20.40;99.90;;;;;;5081154;28;20037;-76
2022/05/15 08:57:48;;;;;;;7.55;3.38;;;20.50;99.90;;;;;;5073110;28;20029;-76
2022/05/15 09:00:19;;;;;;;9.35;3.63;;;20.70;99.90;;;;;;5068370;28;20028;-76
2022/05/15 09:02:45;;;;;;;7.75;3.60;;;20.50;99.90;;;;;;5063633;28;20112;-76
2022/05/15 09:05:13;;;;;;;7.00;3.70;;;20.80;99.90;;;;;;5052809;28;20047;-77
2022/05/15 09:08:01;;;;;;;7.85;3.35;;;20.70;99.90;;;;;;5064998;28;20028;-76
2022/05/15 09:10:35;;;;;;;6.00;3.10;;;20.70;99.90;;;;;;5064987;28;20429;-77
2022/05/15 09:13:11;;;;;;;5.55;3.00;;;20.80;99.90;;;;;;5065966;28;20017;-76
2022/05/15 09:15:39;;;;;;;;;;;20.80;99.90;;;;;;5065487;28;20066;-76
2022/05/15 09:18:06;;;;;;;5.75;3.70;;;21.00;99.90;;;;;;5062956;28;19904;-76
2022/05/15 09:20:44;;;;;;;8.52;2.92;;;21.00;99.90;;;;;;5057597;28;20021;-76
2022/05/15 09:23:29;;;;;;;9.82;2.90;;;21.00;99.90;;;;;;5071463;28;20025;-77
2022/05/15 09:26:11;;;;;;;7.55;2.65;;;21.30;99.90;;;;;;5060653;28;20047;-76
2022/05/15 09:28:47;;;;;;;3.95;2.35;;;21.40;99.90;;;;;;5067639;28;20382;-76
2022/05/15 09:31:30;;;;;;;7.78;2.72;;;21.40;99.90;;;;;;5052175;28;20434;-76
2022/05/15 09:34:24;;;;;;;7.40;2.50;;;21.30;99.90;;;;;;5060912;28;20047;-76
2022/05/15 09:36:51;;;;;;;3.85;2.47;;;21.20;99.90;;;;;;5056007;28;20544;-76
2022/05/15 09:39:26;;;;;;;7.10;2.70;;;21.30;99.90;;;;;;5060272;28;20033;-75
2022/05/15 09:45:06;;;;;;;4.57;2.60;;;21.80;99.90;;;;;;5057103;28;20513;-78
2022/05/15 09:47:37;;;;;;;8.35;2.55;;;21.90;99.90;;;;;;5057639;28;20027;-77
2022/05/15 09:50:05;;;;;;;6.85;2.60;;;21.80;99.90;;;;;;5054347;28;20032;-75
2022/05/15 09:52:35;;;;;;;6.25;2.70;;;22.00;99.90;;;;;;5052485;28;20471;-77
2022/05/15 09:55:13;;;;;;;5.95;2.80;;;21.90;99.90;;;;;;5063936;28;20017;-76
2022/05/15 09:57:51;;;;;;;9.90;6.22;;;22.10;99.90;;;;;;5067952;28;20398;-75
2022/05/15 10:00:21;;;;;;;8.02;3.45;;;22.40;99.90;;;;;;5064363;28;20116;-77
2022/05/15 10:02:49;;;;;;;8.85;4.50;;;22.70;99.90;;;;;;5058625;28;20021;-77
2022/05/15 10:05:14;;;;;;;7.57;4.15;;;22.80;99.90;;;;;;5059366;28;20086;-76
2022/05/15 10:07:46;;;;;;;17.85;10.68;;;22.80;99.90;;;;;;5070987;28;20024;-76
2022/05/15 10:10:22;;;;;;;7.78;4.05;;;22.80;99.90;;;;;;5058339;28;20017;-76
2022/05/15 10:12:54;;;;;;;6.07;2.83;;;22.60;99.50;;;;;;5063849;28;20086;-76
2022/05/15 10:15:21;;;;;;;6.85;3.08;;;22.80;99.10;;;;;;5063822;28;20016;-76
2022/05/15 10:17:58;;;;;;;16.20;8.75;;;23.10;98.60;;;;;;5060910;28;20020;-77
2022/05/15 10:20:29;;;;;;;11.23;5.47;;;23.00;98.90;;;;;;5053863;28;20061;-77
2022/05/15 10:23:13;;;;;;;6.43;3.78;;;23.00;97.30;;;;;;5063176;28;20020;-77
2022/05/15 10:25:41;;;;;;;7.72;3.92;;;22.80;97.80;;;;;;5051787;28;20031;-78
2022/05/15 10:28:33;;;;;;;4.32;2.80;;;23.20;98.00;;;;;;5064393;28;20035;-77
2022/05/15 10:31:03;;;;;;;6.15;2.60;;;23.00;97.40;;;;;;5060314;28;20021;-76
2022/05/15 10:33:35;;;;;;;7.57;4.90;;;23.00;97.60;;;;;;5063724;28;20021;-76
2022/05/15 10:36:21;;;;;;;7.38;3.45;;;23.00;97.60;;;;;;5062962;28;20479;-75
2022/05/15 10:38:50;;;;;;;6.15;3.28;;;23.20;97.10;;;;;;5059142;28;20555;-77
2022/05/15 10:41:34;;;;;;;9.52;2.85;;;23.10;97.00;;;;;;5057899;28;20021;-76
2022/05/15 10:44:23;;;;;;;9.43;3.97;;;23.20;95.70;;;;;;5070602;28;20028;-77
2022/05/15 10:46:58;;;;;;;6.80;2.60;;;23.60;95.20;;;;;;5058572;28;20032;-77
2022/05/15 10:49:36;;;;;;;9.77;7.53;;;23.80;94.10;;;;;;5057041;28;20560;-77
2022/05/15 10:52:32;;;;;;;6.32;4.38;;;23.80;95.20;;;;;;5059602;28;20086;-77
2022/05/15 10:58:38;;;;;;;5.43;2.65;;;23.90;93.30;;;;;;5059489;28;20116;-76
2022/05/15 11:01:12;;;;;;;5.22;2.22;;;23.90;95.40;;;;;;5070445;28;20048;-77
2022/05/15 11:03:38;;;;;;;7.88;2.92;;;24.00;94.40;;;;;;5068410;28;20551;-77
2022/05/15 11:06:39;;;;;;;5.70;2.47;;;23.50;95.00;;;;;;5060994;28;20032;-76
2022/05/15 11:09:12;;;;;;;3.45;2.03;;;23.60;94.50;;;;;;5062257;28;20025;-77
2022/05/15 11:12:03;;;;;;;6.50;2.50;;;23.80;96.20;;;;;;5074021;28;20052;-77
2022/05/15 11:14:37;;;;;;;3.78;2.40;;;23.50;94.70;;;;;;5064078;28;20044;-76
2022/05/15 11:17:17;;;;;;;5.18;2.40;;;24.10;94.80;;;;;;5074627;28;20078;-77
2022/05/15 11:19:45;;;;;;;4.50;2.40;;;24.50;93.40;;;;;;5074300;28;20048;-77
2022/05/15 11:22:48;;;;;;;3.67;2.28;;;24.40;94.00;;;;;;5061350;28;20162;-77
2022/05/15 11:25:21;;;;;;;5.22;2.58;;;24.40;93.10;;;;;;5033069;28;20037;-77
2022/05/15 11:27:49;;;;;;;6.32;2.40;;;24.30;93.70;;;;;;5074734;28;20089;-78
2022/05/15 11:30:18;;;;;;;7.15;2.80;;;24.70;93.00;;;;;;5060251;28;20029;-77
2022/05/15 11:32:44;;;;;;;3.30;2.40;;;24.70;91.50;;;;;;5063736;28;20135;-77
2022/05/15 11:35:18;;;;;;;5.03;2.42;;;24.30;91.70;;;;;;5053947;28;20166;-77
2022/05/15 11:37:56;;;;;;;6.28;2.67;;;24.80;93.80;;;;;;5066933;28;20031;-76
2022/05/15 11:40:44;;;;;;;5.63;2.63;;;25.10;92.90;;;;;;5062629;28;20059;-77
2022/05/15 11:43:30;;;;;;;7.25;2.53;;;25.10;93.30;;;;;;5070184;28;20388;-77
2022/05/15 11:45:58;;;;;;;4.72;2.15;;;24.70;91.90;;;;;;5067150;28;20021;-77
2022/05/15 11:48:45;;;;;;;4.72;2.10;;;24.40;92.30;;;;;;5068290;28;20033;-77
2022/05/15 11:51:13;;;;;;;6.50;2.47;;;25.10;92.50;;;;;;5046436;28;20044;-77
2022/05/15 11:53:55;;;;;;;7.18;2.55;;;25.50;93.10;;;;;;5064750;28;20017;-77
2022/05/15 11:56:28;;;;;;;4.72;2.47;;;25.80;94.20;;;;;;5073297;28;20364;-78
2022/05/15 11:59:05;;;;;;;4.50;2.42;;;26.20;91.40;;;;;;5061146;28;20017;-77
2022/05/15 12:01:31;;;;;;;4.50;2.65;;;25.90;92.40;;;;;;5064089;28;20116;-78
2022/05/15 12:03:59;;;;;;;5.72;2.50;;;26.10;91.40;;;;;;5068067;28;20144;-76
2022/05/15 12:06:28;;;;;;;4.38;2.50;;;25.90;93.00;;;;;;5065473;28;20665;-76
2022/05/15 12:09:16;;;;;;;5.00;2.38;;;26.10;91.00;;;;;;5067652;28;20032;-75
2022/05/15 12:11:43;;;;;;;6.28;2.00;;;25.80;90.70;;;;;;5065317;28;20025;-78
2022/05/15 12:14:27;;;;;;;6.32;2.58;;;26.10;90.40;;;;;;5060788;28;20104;-77
2022/05/15 12:16:57;;;;;;;5.60;2.30;;;26.50;90.70;;;;;;5059286;28;20021;-76
2022/05/15 12:19:29;;;;;;;3.33;2.40;;;26.20;90.20;;;;;;5074079;28;20035;-78
2022/05/15 12:21:57;;;;;;;6.32;2.20;;;26.00;90.30;;;;;;5058947;28;20410;-76
2022/05/15 12:24:33;;;;;;;4.75;2.35;;;26.40;89.30;;;;;;5064521;28;20091;-77
2022/05/15 12:27:02;;;;;;;;;;;26.70;87.80;;;;;;5067776;28;20035;-77
2022/05/15 12:30:01;;;;;;;5.90;2.50;;;26.30;86.80;;;;;;5065118;28;20334;-78
2022/05/15 12:32:50;;;;;;;5.53;2.17;;;26.20;90.50;;;;;;5062325;28;20016;-77
2022/05/15 12:35:22;;;;;;;4.53;2.42;;;27.00;88.60;;;;;;5060119;28;20027;-77
2022/05/15 12:37:57;;;;;;;7.15;2.10;;;26.70;86.10;;;;;;5061034;28;20057;-78
2022/05/15 12:40:56;;;;;;;3.70;2.47;;;26.70;88.80;;;;;;5060440;28;20028;-77
2022/05/15 12:43:33;;;;;;;4.00;2.42;;;27.20;87.10;;;;;;5054034;28;20067;-76
2022/05/15 12:45:59;;;;;;;4.38;2.50;;;27.10;86.50;;;;;;5060393;28;20490;-77
2022/05/15 12:48:27;;;;;;;4.32;2.67;;;27.00;86.00;;;;;;5058691;28;20028;-77
2022/05/15 12:51:02;;;;;;;5.20;2.60;;;27.30;85.70;;;;;;5072785;28;20433;-77
2022/05/15 12:53:31;;;;;;;5.40;2.63;;;27.60;86.50;;;;;;5061147;28;20081;-77
2022/05/15 12:56:19;;;;;;;6.03;2.90;;;27.30;84.10;;;;;;5070809;28;20090;-78
2022/05/15 12:58:50;;;;;;;3.78;2.55;;;27.80;84.70;;;;;;5053092;28;20036;-78
2022/05/15 13:01:17;;;;;;;3.42;2.60;;;27.70;83.10;;;;;;5059044;28;20031;-77
2022/05/15 13:03:44;;;;;;;4.72;2.40;;;27.20;85.80;;;;;;5056923;28;20056;-77
2022/05/15 13:06:10;;;;;;;4.97;2.35;;;27.50;85.10;;;;;;5059671;28;20485;-76
2022/05/15 13:08:49;;;;;;;4.53;2.45;;;28.10;83.90;;;;;;5058221;28;20028;-73
2022/05/15 13:11:42;;;;;;;4.45;2.40;;;28.20;83.00;;;;;;5052686;28;20044;-76
2022/05/15 13:14:19;;;;;;;4.30;2.28;;;28.50;81.00;;;;;;5058611;28;20052;-77
2022/05/15 13:16:49;;;;;;;7.72;2.42;;;28.10;82.40;;;;;;5059781;28;20025;-77
2022/05/15 13:19:20;;;;;;;4.30;2.50;;;28.20;80.20;;;;;;5065337;28;20407;-76